createdAt,value
2022-11-24T00:01:17.878Z,93851.16
2022-11-24T00:03:45.042Z,93845.97
2022-11-24T00:06:13.050Z,93856.34
2022-11-24T00:08:40.125Z,93836.41
2022-11-24T00:11:08.291Z,93838.03
2022-11-24T00:13:34.811Z,93817.78
2022-11-24T00:16:25.811Z,93795.06
2022-11-24T00:18:53.231Z,93781.16
2022-11-24T00:21:19.869Z,93760.44
2022-11-24T00:23:46.618Z,93736.91
2022-11-24T00:26:16.451Z,93718.59
2022-11-24T00:28:43.174Z,93682.31
2022-11-24T00:31:20.669Z,93652.06
2022-11-24T00:33:48.119Z,93616.56
2022-11-24T00:36:14.647Z,93589.88
2022-11-24T00:38:41.294Z,93552.78
2022-11-24T00:41:07.782Z,93519.75
2022-11-24T00:43:34.306Z,93493.81
2022-11-24T00:46:00.891Z,93458.97
2022-11-24T00:48:27.427Z,93438.41
2022-11-24T00:51:01.711Z,93402.16
2022-11-24T00:53:28.428Z,93369.06
2022-11-24T00:55:55.052Z,93345.75
2022-11-24T00:58:22.165Z,93306.88
2022-11-24T01:00:49.044Z,93275.44
2022-11-24T01:03:16.149Z,93258.28
2022-11-24T01:05:42.653Z,93232.38
2022-11-24T01:08:09.391Z,93228.78
2022-11-24T01:10:36.043Z,93218.06
2022-11-24T01:13:02.595Z,93216.06
2022-11-24T01:15:30.224Z,93237.44
2022-11-24T01:17:57.025Z,93236.03
2022-11-24T01:20:23.828Z,93256.75
2022-11-24T01:22:50.355Z,93313.78
2022-11-24T01:25:16.950Z,93337.09
2022-11-24T01:27:43.407Z,93354.47
2022-11-24T01:30:11.058Z,93342.91
2022-11-24T01:32:37.559Z,93334.16
2022-11-24T01:35:04.715Z,93323.78
2022-11-24T01:37:31.337Z,93296.50
2022-11-24T01:39:57.901Z,93284.38
2022-11-24T01:42:24.454Z,93238.13
2022-11-24T01:45:25.852Z,93170.34
2022-11-24T01:47:52.308Z,93065.69
2022-11-24T01:50:19.043Z,92782.72
2022-11-24T01:52:48.007Z,92722.53
2022-11-24T01:55:22.072Z,92703.78
2022-11-24T01:57:54.580Z,92664.31
2022-11-24T02:00:21.065Z,92674.31
2022-11-24T02:02:47.636Z,92678.50
2022-11-24T02:05:23.373Z,92682.28
2022-11-24T02:07:49.897Z,92678.31
2022-11-24T02:10:16.522Z,92667.13
2022-11-24T02:12:47.161Z,92657.19
2022-11-24T02:15:17.152Z,92654.41
2022-11-24T02:17:44.048Z,92663.59
2022-11-24T02:20:11.270Z,92682.09
2022-11-24T02:22:56.021Z,92689.09
2022-11-24T02:25:34.576Z,92697.47
2022-11-24T02:28:01.491Z,92704.41
2022-11-24T02:30:27.965Z,92701.84
2022-11-24T02:32:54.556Z,92706.22
2022-11-24T02:35:21.085Z,92693.69
2022-11-24T02:37:47.624Z,92673.16
2022-11-24T02:40:16.212Z,92651.03
2022-11-24T02:42:43.395Z,92626.50
2022-11-24T02:45:10.264Z,92599.41
2022-11-24T02:47:36.747Z,92571.53
2022-11-24T02:50:03.713Z,92567.53
2022-11-24T02:52:30.153Z,92564.72
2022-11-24T02:54:56.619Z,92533.66
2022-11-24T02:57:23.399Z,92533.06
2022-11-24T02:59:49.933Z,92530.88
2022-11-24T03:02:16.422Z,92534.88
2022-11-24T03:04:44.625Z,92524.50
2022-11-24T03:07:11.149Z,92527.34
2022-11-24T03:09:37.664Z,92526.13
2022-11-24T03:12:04.299Z,92517.56
2022-11-24T03:14:30.794Z,92509.78
2022-11-24T03:16:57.268Z,92494.63
2022-11-24T03:19:23.778Z,92488.22
2022-11-24T03:21:50.254Z,92461.91
2022-11-24T03:24:16.704Z,92444.75
2022-11-24T03:26:44.312Z,92430.81
2022-11-24T03:29:10.873Z,92417.25
2022-11-24T03:31:37.440Z,92382.72
2022-11-24T03:34:03.955Z,92363.38
2022-11-24T03:36:30.473Z,92340.03
2022-11-24T03:38:56.936Z,92301.13
2022-11-24T03:41:23.416Z,92271.41
2022-11-24T03:43:49.864Z,92243.47
2022-11-24T03:46:16.364Z,92218.69
2022-11-24T03:48:42.832Z,92185.38
2022-11-24T03:51:09.601Z,92151.25
2022-11-24T03:53:36.056Z,92089.38
2022-11-24T03:56:02.631Z,92074.00
2022-11-24T03:58:29.295Z,92019.22
2022-11-24T04:00:56.114Z,91990.81
2022-11-24T04:03:22.790Z,91975.63
2022-11-24T04:05:49.348Z,91960.84
2022-11-24T04:08:15.989Z,91952.53
2022-11-24T04:10:42.499Z,91930.31
2022-11-24T04:13:13.827Z,91922.53
2022-11-24T04:15:40.651Z,91913.16
2022-11-24T04:18:07.494Z,91893.00
2022-11-24T04:20:34.225Z,91886.78
2022-11-24T04:23:00.819Z,91875.88
2022-11-24T04:25:27.218Z,91877.88
2022-11-24T04:27:54.365Z,91882.50
2022-11-24T04:30:21.281Z,91838.22
2022-11-24T04:32:47.793Z,91834.81
2022-11-24T04:35:14.254Z,91823.22
2022-11-24T04:37:40.740Z,91799.22
2022-11-24T04:40:08.287Z,91799.84
2022-11-24T04:42:34.765Z,91779.22
2022-11-24T04:45:01.290Z,91776.41
2022-11-24T04:47:27.703Z,91765.81
2022-11-24T04:49:54.198Z,91765.34
2022-11-24T04:52:21.820Z,91770.53
2022-11-24T04:54:48.584Z,91773.69
2022-11-24T04:57:19.470Z,91773.22
2022-11-24T04:59:45.923Z,91777.50
2022-11-24T05:02:12.490Z,91780.63
2022-11-24T05:04:39.020Z,91785.38
2022-11-24T05:07:05.558Z,91790.56
2022-11-24T05:09:54.908Z,91797.66
2022-11-24T05:12:18.262Z,91804.66
2022-11-24T05:14:44.630Z,91813.56
2022-11-24T05:17:10.968Z,91814.72
2022-11-24T05:19:37.324Z,91831.84
2022-11-24T05:22:03.828Z,91856.22
2022-11-24T05:24:30.230Z,91876.19
2022-11-24T05:26:56.647Z,91894.56
2022-11-24T05:29:23.000Z,91911.13
2022-11-24T05:31:49.437Z,91924.13
2022-11-24T05:34:15.886Z,91921.66
2022-11-24T05:36:54.500Z,91930.47
2022-11-24T05:39:21.315Z,91941.66
2022-11-24T05:41:47.751Z,91954.84
2022-11-24T05:44:14.115Z,91961.59
2022-11-24T05:46:40.527Z,91969.63
2022-11-24T05:49:06.925Z,91976.63
2022-11-24T05:51:33.374Z,91990.00
2022-11-24T05:53:59.744Z,91983.41
2022-11-24T05:56:26.139Z,91993.16
2022-11-24T05:58:52.589Z,91995.19
2022-11-24T06:01:18.966Z,91985.50
2022-11-24T06:03:45.341Z,91990.97
2022-11-24T06:06:11.709Z,92007.16
2022-11-24T06:08:38.055Z,91981.94
2022-11-24T06:11:19.614Z,91984.53
2022-11-24T06:13:47.555Z,91958.22
2022-11-24T06:16:14.657Z,91960.91
2022-11-24T06:18:41.135Z,91955.28
2022-11-24T06:21:11.828Z,91945.56
2022-11-24T06:23:38.791Z,91956.28
2022-11-24T06:26:05.296Z,91943.72
2022-11-24T06:28:31.801Z,91951.06
2022-11-24T06:31:07.179Z,91973.41
2022-11-24T06:33:34.352Z,91993.16
2022-11-24T06:36:08.197Z,92027.94
2022-11-24T06:38:34.843Z,92080.81
2022-11-24T06:41:01.726Z,92123.25
2022-11-24T06:43:28.954Z,92137.81
2022-11-24T06:45:55.811Z,92176.19
2022-11-24T06:48:22.849Z,92191.75
2022-11-24T06:50:49.394Z,92191.44
2022-11-24T06:53:15.804Z,92214.38
2022-11-24T06:55:42.304Z,92240.91
2022-11-24T06:58:08.666Z,92259.22
2022-11-24T07:00:35.030Z,92309.59
2022-11-24T07:03:01.430Z,92369.63
2022-11-24T07:05:28.060Z,92421.00
2022-11-24T07:07:54.433Z,92453.59
2022-11-24T07:10:20.807Z,92473.94
2022-11-24T07:12:47.148Z,92473.06
2022-11-24T07:15:14.223Z,92489.00
2022-11-24T07:17:40.795Z,92505.00
2022-11-24T07:20:08.440Z,92508.72
2022-11-24T07:22:34.869Z,92515.66
2022-11-24T07:25:01.749Z,92519.56
2022-11-24T07:27:28.395Z,92534.28
2022-11-24T07:29:54.738Z,92564.03
2022-11-24T07:32:21.178Z,92595.00
2022-11-24T07:34:47.566Z,92624.16
2022-11-24T07:37:13.917Z,92653.72
2022-11-24T07:39:40.273Z,92682.88
2022-11-24T07:42:08.399Z,92726.50
2022-11-24T07:44:34.955Z,92760.69
2022-11-24T07:47:01.440Z,92802.28
2022-11-24T07:49:27.796Z,92858.09
2022-11-24T07:51:54.205Z,92915.50
2022-11-24T07:54:20.591Z,92937.72
2022-11-24T07:56:49.969Z,92975.28
2022-11-24T07:59:16.313Z,92992.06
2022-11-24T08:01:42.733Z,93012.47
2022-11-24T08:04:09.204Z,93032.88
2022-11-24T08:06:41.916Z,93057.25
2022-11-24T08:09:10.916Z,93076.66
2022-11-24T08:11:37.386Z,93109.66
2022-11-24T08:14:03.739Z,93107.63
2022-11-24T08:16:30.118Z,93069.06
2022-11-24T08:18:56.643Z,93069.06
2022-11-24T08:21:23.611Z,93046.03
2022-11-24T08:23:53.290Z,93049.22
2022-11-24T08:26:19.663Z,93073.22
2022-11-24T08:28:46.451Z,93086.63
2022-11-24T08:31:15.933Z,93086.03
2022-11-24T08:33:42.473Z,93093.59
2022-11-24T08:36:10.429Z,93085.22
2022-11-24T08:38:36.910Z,93090.03
2022-11-24T08:41:07.496Z,93080.22
2022-11-24T08:43:33.905Z,93049.19
2022-11-24T08:46:04.605Z,93023.81
2022-11-24T08:48:30.967Z,93013.38
2022-11-24T08:50:57.895Z,93011.56
2022-11-24T08:53:24.670Z,93016.34
2022-11-24T08:55:51.135Z,93017.53
2022-11-24T08:58:17.638Z,93013.72
2022-11-24T09:00:44.067Z,92997.47
2022-11-24T09:03:10.868Z,92989.44
2022-11-24T09:05:51.612Z,93000.63
2022-11-24T09:08:18.347Z,93016.19
2022-11-24T09:10:44.753Z,93040.56
2022-11-24T09:13:11.105Z,93085.59
2022-11-24T09:15:37.544Z,93133.41
2022-11-24T09:18:03.914Z,93197.66
2022-11-24T09:20:30.266Z,93259.31
2022-11-24T09:22:56.660Z,93331.63
2022-11-24T09:25:23.626Z,93394.09
2022-11-24T09:27:50.853Z,93438.56
2022-11-24T09:30:17.266Z,93498.66
2022-11-24T09:32:43.644Z,93557.75
2022-11-24T09:35:10.008Z,93618.50
2022-11-24T09:37:36.387Z,93675.38
2022-11-24T09:40:02.868Z,93718.28
2022-11-24T09:42:32.247Z,93749.56
2022-11-24T09:45:12.775Z,93800.91
2022-11-24T09:47:56.640Z,93835.44
2022-11-24T09:50:24.366Z,93874.56
2022-11-24T09:53:21.465Z,93955.78
2022-11-24T09:55:52.358Z,93999.59
2022-11-24T09:58:24.632Z,94072.84
2022-11-24T10:00:52.036Z,94180.72
2022-11-24T10:03:30.188Z,94290.88
2022-11-24T10:05:56.559Z,94327.47
2022-11-24T10:08:38.329Z,94372.25
2022-11-24T10:11:12.925Z,94424.31
2022-11-24T10:13:57.858Z,94489.34
2022-11-24T10:16:45.868Z,94548.78
2022-11-24T10:19:15.061Z,94650.09
2022-11-24T10:22:00.178Z,94754.88
2022-11-24T10:24:32.607Z,94779.19
2022-11-24T10:27:03.887Z,94781.94
2022-11-24T10:29:37.776Z,94838.97
2022-11-24T10:32:05.874Z,94887.59
2022-11-24T10:34:37.839Z,94963.25
2022-11-24T10:37:33.506Z,94995.53
2022-11-24T10:40:10.814Z,95025.53
2022-11-24T10:42:43.494Z,95041.34
2022-11-24T10:45:14.954Z,95070.22
2022-11-24T10:47:41.835Z,95095.66
2022-11-24T10:50:11.310Z,95161.56
2022-11-24T10:52:41.124Z,95193.19
2022-11-24T10:55:07.634Z,95205.78
2022-11-24T10:57:35.851Z,95211.16
2022-11-24T11:00:04.971Z,95221.25
2022-11-24T11:02:38.583Z,95185.38
2022-11-24T11:05:25.571Z,95190.59
2022-11-24T11:08:20.226Z,95180.78
2022-11-24T11:10:48.188Z,95201.84
2022-11-24T11:13:28.447Z,95179.97
2022-11-24T11:15:55.730Z,95130.38
2022-11-24T11:18:22.214Z,95134.44
2022-11-24T11:20:50.232Z,95137.69
2022-11-24T11:23:21.474Z,95177.50
2022-11-24T11:25:48.371Z,95155.94
2022-11-24T11:28:18.350Z,95117.84
2022-11-24T11:31:20.084Z,95146.19
2022-11-24T11:34:13.911Z,95213.97
2022-11-24T11:36:50.776Z,95297.22
2022-11-24T11:39:37.999Z,95418.81
2022-11-24T11:45:16.670Z,95513.41
2022-11-24T11:47:46.062Z,95536.13
2022-11-24T11:50:13.399Z,95545.94
2022-11-24T11:53:01.482Z,95582.72
2022-11-24T11:55:56.298Z,95572.44
2022-11-24T11:58:45.132Z,95593.06
2022-11-24T12:01:23.560Z,95597.78
2022-11-24T12:04:19.252Z,95598.94
2022-11-24T12:06:48.560Z,95677.56
2022-11-24T12:09:22.560Z,95731.44
2022-11-24T12:11:58.080Z,95716.91
2022-11-24T12:14:24.412Z,95699.28
2022-11-24T12:17:03.036Z,95681.31
2022-11-24T12:19:48.244Z,95668.56
2022-11-24T12:22:24.901Z,95697.69
2022-11-24T12:25:11.917Z,95651.41
2022-11-24T12:27:46.440Z,95687.44
2022-11-24T12:30:17.364Z,95705.91
2022-11-24T12:33:01.943Z,95673.56
2022-11-24T12:35:48.637Z,95701.69
2022-11-24T12:38:33.800Z,95750.78
2022-11-24T12:41:41.818Z,95711.22
2022-11-24T12:44:37.071Z,95812.66
2022-11-24T12:47:25.217Z,95890.91
2022-11-24T12:50:06.757Z,95968.44
2022-11-24T12:52:35.467Z,96014.22
2022-11-24T12:55:01.832Z,96021.13
2022-11-24T12:57:32.876Z,95986.75
2022-11-24T13:00:02.247Z,95948.97
2022-11-24T13:02:52.235Z,95999.53
2022-11-24T13:05:37.618Z,96038.13
2022-11-24T13:08:04.913Z,96041.72
2022-11-24T13:10:55.429Z,96170.69
2022-11-24T13:13:23.270Z,96261.06
2022-11-24T13:16:07.022Z,96231.16
2022-11-24T13:19:00.203Z,96297.13
2022-11-24T13:21:35.677Z,96351.41
2022-11-24T13:24:04.207Z,96353.09
2022-11-24T13:26:51.864Z,96355.03
2022-11-24T13:29:27.584Z,96369.09
2022-11-24T13:31:54.941Z,96362.50
2022-11-24T13:34:39.988Z,96340.50
2022-11-24T13:37:31.898Z,96341.75
2022-11-24T13:40:11.768Z,96324.00
2022-11-24T13:42:58.711Z,96275.22
2022-11-24T13:45:44.940Z,96250.19
2022-11-24T13:48:20.803Z,96190.13
2022-11-24T13:50:51.074Z,96167.53
2022-11-24T13:53:36.358Z,96166.19
2022-11-24T13:56:03.888Z,96140.63
2022-11-24T13:58:34.629Z,96099.03
2022-11-24T14:01:02.196Z,96066.75
2022-11-24T14:03:36.533Z,96074.34
2022-11-24T14:06:03.245Z,96072.72
2022-11-24T14:08:34.253Z,96045.50
2022-11-24T14:11:01.342Z,96033.53
2022-11-24T14:13:34.374Z,95990.50
2022-11-24T14:16:06.977Z,96022.19
2022-11-24T14:18:33.838Z,96044.75
2022-11-24T14:21:02.093Z,96099.81
2022-11-24T14:23:28.470Z,96161.75
2022-11-24T14:25:54.878Z,96195.22
2022-11-24T14:28:28.585Z,96213.97
2022-11-24T14:31:08.688Z,96243.00
2022-11-24T14:33:35.950Z,96271.09
2022-11-24T14:36:02.318Z,96261.06
2022-11-24T14:38:28.661Z,96226.69
2022-11-24T14:40:55.365Z,96200.94
2022-11-24T14:43:22.224Z,96178.41
2022-11-24T14:46:05.931Z,96200.16
2022-11-24T14:48:36.662Z,96205.38
2022-11-24T14:51:16.778Z,96205.66
2022-11-24T14:53:43.991Z,96201.53
2022-11-24T14:56:26.648Z,96187.66
2022-11-24T14:58:53.478Z,96181.22
2022-11-24T15:01:29.664Z,96170.91
2022-11-24T15:04:46.248Z,96138.03
2022-11-24T15:07:06.719Z,96124.06
2022-11-24T15:09:38.475Z,96085.00
2022-11-24T15:12:28.532Z,96064.38
2022-11-24T15:15:02.561Z,96033.84
2022-11-24T15:17:29.416Z,95990.84
2022-11-24T15:20:10.989Z,95958.97
2022-11-24T15:22:39.597Z,95866.63
2022-11-24T15:25:33.345Z,95789.19
2022-11-24T15:28:00.254Z,95728.91
2022-11-24T15:30:26.845Z,95652.19
2022-11-24T15:32:57.623Z,95582.47
2022-11-24T15:35:25.304Z,95514.56
2022-11-24T15:37:51.923Z,95464.31
2022-11-24T15:40:18.553Z,95406.53
2022-11-24T15:42:50.667Z,95342.28
2022-11-24T15:45:17.108Z,95283.38
2022-11-24T15:47:43.497Z,95221.06
2022-11-24T15:50:10.368Z,95185.69
2022-11-24T15:52:36.825Z,95149.50
2022-11-24T15:55:03.409Z,95115.75
2022-11-24T15:57:29.877Z,95082.66
2022-11-24T15:59:56.216Z,95040.47
2022-11-24T16:02:22.713Z,94998.91
2022-11-24T16:04:49.311Z,94948.69
2022-11-24T16:07:15.745Z,94898.19
2022-11-24T16:09:42.177Z,94848.34
2022-11-24T16:12:08.632Z,94801.16
2022-11-24T16:14:36.057Z,94752.00
2022-11-24T16:17:02.718Z,94711.66
2022-11-24T16:19:29.221Z,94668.56
2022-11-24T16:21:55.564Z,94604.63
2022-11-24T16:24:21.961Z,94542.03
2022-11-24T16:26:48.298Z,94472.59
2022-11-24T16:29:14.937Z,94430.19
2022-11-24T16:31:43.424Z,94398.22
2022-11-24T16:34:10.100Z,94372.06
2022-11-24T16:36:36.445Z,94321.81
2022-11-24T16:39:02.885Z,94255.13
2022-11-24T16:41:29.225Z,94142.06
2022-11-24T16:43:55.667Z,94050.38
2022-11-24T16:46:23.487Z,93994.19
2022-11-24T16:48:51.254Z,93973.88
2022-11-24T16:51:18.737Z,93992.34
2022-11-24T16:53:45.088Z,94024.47
2022-11-24T16:56:11.696Z,94101.50
2022-11-24T16:58:38.857Z,94194.94
2022-11-24T17:01:10.398Z,94291.34
2022-11-24T17:03:39.973Z,94384.56
2022-11-24T17:06:07.518Z,94455.88
2022-11-24T17:08:34.866Z,94485.69
2022-11-24T17:11:14.821Z,94518.94
2022-11-24T17:13:41.574Z,94522.72
2022-11-24T17:16:10.088Z,94514.41
2022-11-24T17:18:36.593Z,94511.72
2022-11-24T17:21:07.671Z,94477.22
2022-11-24T17:23:34.400Z,94456.81
2022-11-24T17:26:08.035Z,94467.72
2022-11-24T17:28:35.107Z,94466.44
2022-11-24T17:31:07.806Z,94472.66
2022-11-24T17:33:34.706Z,94453.16
2022-11-24T17:36:04.897Z,94455.47
2022-11-24T17:38:31.296Z,94467.22
2022-11-24T17:40:57.973Z,94475.03
2022-11-24T17:43:24.570Z,94495.25
2022-11-24T17:45:55.100Z,94528.81
2022-11-24T17:48:21.593Z,94530.81
2022-11-24T17:50:48.026Z,94530.47
2022-11-24T17:53:14.702Z,94531.09
2022-11-24T17:55:41.922Z,94544.94
2022-11-24T17:58:08.317Z,94565.56
2022-11-24T18:00:34.673Z,94607.31
2022-11-24T18:03:01.372Z,94638.59
2022-11-24T18:05:27.747Z,94636.31
2022-11-24T18:07:55.026Z,94630.78
2022-11-24T18:10:21.427Z,94647.06
2022-11-24T18:12:47.842Z,94638.59
2022-11-24T18:15:14.291Z,94632.75
2022-11-24T18:17:40.653Z,94641.56
2022-11-24T18:20:07.646Z,94642.53
2022-11-24T18:23:04.160Z,94645.81
2022-11-24T18:25:20.446Z,94657.53
2022-11-24T18:27:46.907Z,94654.44
2022-11-24T18:30:13.532Z,94654.63
2022-11-24T18:32:39.948Z,94654.94
2022-11-24T18:35:06.552Z,94646.19
2022-11-24T18:37:33.721Z,94634.47
2022-11-24T18:40:00.184Z,94615.44
2022-11-24T18:42:26.806Z,94599.50
2022-11-24T18:44:54.341Z,94598.03
2022-11-24T18:47:20.823Z,94582.44
2022-11-24T18:49:47.198Z,94574.25
2022-11-24T18:52:13.565Z,94569.06
2022-11-24T18:54:40.056Z,94561.25
2022-11-24T18:57:06.430Z,94566.47
2022-11-24T18:59:32.782Z,94558.81
2022-11-24T19:01:59.255Z,94550.25
2022-11-24T19:04:26.192Z,94551.72
2022-11-24T19:06:52.553Z,94523.31
2022-11-24T19:09:20.503Z,94481.19
2022-11-24T19:11:47.057Z,94438.69
2022-11-24T19:14:15.526Z,94404.22
2022-11-24T19:16:42.304Z,94379.81
2022-11-24T19:19:08.879Z,94354.78
2022-11-24T19:21:37.477Z,94350.56
2022-11-24T19:24:05.876Z,94343.72
2022-11-24T19:26:35.941Z,94347.78
2022-11-24T19:29:03.034Z,94373.00
2022-11-24T19:31:29.571Z,94369.75
2022-11-24T19:33:58.283Z,94390.91
2022-11-24T19:36:25.999Z,94449.50
2022-11-24T19:38:53.846Z,94476.22
2022-11-24T19:41:21.448Z,94518.16
2022-11-24T19:43:48.240Z,94548.91
2022-11-24T19:46:18.724Z,94578.03
2022-11-24T19:48:57.083Z,94576.09
2022-11-24T19:51:25.424Z,94540.50
2022-11-24T19:53:51.828Z,94489.03
2022-11-24T19:56:25.555Z,94419.16
2022-11-24T19:58:52.125Z,94375.91
2022-11-24T20:01:20.545Z,94302.09
2022-11-24T20:03:49.228Z,94248.94
2022-11-24T20:06:15.924Z,94217.75
2022-11-24T20:08:42.710Z,94200.38
2022-11-24T20:11:14.119Z,94171.06
2022-11-24T20:13:41.359Z,94173.56
2022-11-24T20:16:12.494Z,94189.41
2022-11-24T20:18:42.107Z,94224.25
2022-11-24T20:21:10.700Z,94248.34
2022-11-24T20:23:37.077Z,94269.50
2022-11-24T20:26:14.478Z,94308.50
2022-11-24T20:28:41.050Z,94330.97
2022-11-24T20:31:09.278Z,94361.84
2022-11-24T20:33:35.896Z,94370.31
2022-11-24T20:36:04.129Z,94395.97
2022-11-24T20:38:30.800Z,94411.53
2022-11-24T20:41:09.219Z,94437.97
2022-11-24T20:43:36.415Z,94491.97
2022-11-24T20:46:13.525Z,94535.28
2022-11-24T20:48:39.958Z,94567.53
2022-11-24T20:51:14.027Z,94617.78
2022-11-24T20:53:40.435Z,94647.91
2022-11-24T20:56:08.666Z,94685.16
2022-11-24T20:58:35.341Z,94714.44
2022-11-24T21:01:18.731Z,94730.59
2022-11-24T21:03:45.745Z,94756.63
2022-11-24T21:06:12.769Z,94785.75
2022-11-24T21:08:40.279Z,94811.31
2022-11-24T21:11:06.913Z,94846.56
2022-11-24T21:13:34.120Z,94855.88
2022-11-24T21:16:00.674Z,94888.38
2022-11-24T21:18:27.205Z,94915.69
2022-11-24T21:20:53.551Z,94936.03
2022-11-24T21:23:20.506Z,94957.31
2022-11-24T21:25:46.836Z,94986.41
2022-11-24T21:28:13.265Z,95000.59
2022-11-24T21:30:39.743Z,95010.44
2022-11-24T21:33:06.261Z,95017.50
2022-11-24T21:35:36.088Z,95016.97
2022-11-24T21:38:03.223Z,95010.16
2022-11-24T21:40:29.654Z,95008.53
2022-11-24T21:42:58.357Z,95013.34
2022-11-24T21:45:24.942Z,95018.09
2022-11-24T21:47:51.417Z,95034.88
2022-11-24T21:50:17.884Z,95053.53
2022-11-24T21:52:44.237Z,95080.66
2022-11-24T21:55:10.681Z,95090.59
2022-11-24T21:57:37.029Z,95120.31
2022-11-24T22:00:03.901Z,95152.16
2022-11-24T22:02:30.277Z,95173.03
2022-11-24T22:04:56.637Z,95195.09
2022-11-24T22:07:23.046Z,95216.16
2022-11-24T22:09:49.786Z,95224.34
2022-11-24T22:12:16.406Z,95232.34
2022-11-24T22:14:43.068Z,95242.16
2022-11-24T22:17:09.773Z,95253.59
2022-11-24T22:19:36.125Z,95265.16
2022-11-24T22:22:02.486Z,95247.72
2022-11-24T22:24:28.819Z,95251.53
2022-11-24T22:26:55.171Z,95253.41
2022-11-24T22:29:21.553Z,95248.50
2022-11-24T22:31:47.953Z,95261.81
2022-11-24T22:34:14.393Z,95264.53
2022-11-24T22:36:40.787Z,95256.34
2022-11-24T22:39:10.455Z,95286.81
2022-11-24T22:41:36.857Z,95308.16
2022-11-24T22:44:03.823Z,95315.31
2022-11-24T22:46:30.568Z,95330.28
2022-11-24T22:48:58.614Z,95316.69
2022-11-24T22:51:29.515Z,95318.56
2022-11-24T22:53:57.378Z,95343.28
2022-11-24T22:56:23.828Z,95362.56
2022-11-24T22:58:50.272Z,95406.53
2022-11-24T23:01:21.224Z,95407.25
2022-11-24T23:03:48.662Z,95423.09
2022-11-24T23:06:16.544Z,95434.63
2022-11-24T23:08:43.026Z,95460.84
2022-11-24T23:11:11.647Z,95477.53
2022-11-24T23:13:38.063Z,95480.09
2022-11-24T23:16:09.787Z,95483.88
2022-11-24T23:18:36.232Z,95489.03
2022-11-24T23:21:22.536Z,95489.53
2022-11-24T23:23:49.331Z,95498.22
2022-11-24T23:26:20.193Z,95507.38
2022-11-24T23:28:46.717Z,95483.19
2022-11-24T23:31:17.942Z,95477.44
2022-11-24T23:33:44.393Z,95473.34
2022-11-24T23:36:12.673Z,95466.53
2022-11-24T23:38:39.556Z,95458.91
2022-11-24T23:41:07.745Z,95469.56
2022-11-24T23:43:34.522Z,95489.75
2022-11-24T23:46:37.751Z,95507.16
2022-11-24T23:49:04.176Z,95534.81
2022-11-24T23:51:31.987Z,95547.38
2022-11-24T23:53:58.909Z,95577.44
2022-11-24T23:56:32.241Z,95585.31
2022-11-24T23:58:59.237Z,95586.34
